createdAt,value
2023-02-14T00:01:55.849Z,10.74
2023-02-14T00:04:22.572Z,10.65
2023-02-14T00:06:49.290Z,10.59
2023-02-14T00:09:18.634Z,10.50
2023-02-14T00:11:45.721Z,10.62
2023-02-14T00:14:31.804Z,10.56
2023-02-14T00:16:58.631Z,10.79
2023-02-14T00:19:25.386Z,10.79
2023-02-14T00:21:52.352Z,10.74
2023-02-14T00:24:28.383Z,10.80
2023-02-14T00:26:55.123Z,10.87
2023-02-14T00:29:30.164Z,10.71
2023-02-14T00:31:57.115Z,10.92
2023-02-14T00:34:24.313Z,11.15
2023-02-14T00:36:51.166Z,11.32
2023-02-14T00:39:18.652Z,11.63
2023-02-14T00:41:45.690Z,11.68
2023-02-14T00:44:14.222Z,11.62
2023-02-14T00:46:41.332Z,11.22
2023-02-14T00:49:08.437Z,10.93
2023-02-14T00:51:35.475Z,10.78
2023-02-14T00:54:03.373Z,10.90
2023-02-14T00:56:31.013Z,10.62
2023-02-14T00:58:57.734Z,10.54
2023-02-14T01:01:24.463Z,10.55
2023-02-14T01:03:51.234Z,10.78
2023-02-14T01:06:19.002Z,10.68
2023-02-14T01:08:45.773Z,10.34
2023-02-14T01:11:21.618Z,10.64
2023-02-14T01:13:50.024Z,10.63
2023-02-14T01:16:20.053Z,10.59
2023-02-14T01:18:48.352Z,10.46
2023-02-14T01:21:17.943Z,10.64
2023-02-14T01:23:45.818Z,10.46
2023-02-14T01:26:13.626Z,10.21
2023-02-14T01:28:41.580Z,10.44
2023-02-14T01:31:14.061Z,10.58
2023-02-14T01:33:42.028Z,10.37
2023-02-14T01:36:19.435Z,10.42
2023-02-14T01:38:46.496Z,10.38
2023-02-14T01:41:13.796Z,10.26
2023-02-14T01:44:10.850Z,10.68
2023-02-14T01:46:38.046Z,10.45
2023-02-14T01:49:11.165Z,10.60
2023-02-14T01:51:46.469Z,10.54
2023-02-14T01:54:13.595Z,10.77
2023-02-14T01:56:49.291Z,10.51
2023-02-14T01:59:21.521Z,10.25
2023-02-14T02:01:50.689Z,10.31
2023-02-14T02:04:35.642Z,10.36
2023-02-14T02:07:07.348Z,10.38
2023-02-14T02:09:46.267Z,10.35
2023-02-14T02:12:13.500Z,10.49
2023-02-14T02:14:41.072Z,10.38
2023-02-14T02:17:43.030Z,10.35
2023-02-14T02:20:36.437Z,10.46
2023-02-14T02:23:34.217Z,10.11
2023-02-14T02:26:23.804Z,9.95
2023-02-14T02:29:11.336Z,9.96
2023-02-14T02:31:59.536Z,9.76
2023-02-14T02:35:07.449Z,9.86
2023-02-14T02:37:55.707Z,9.89
2023-02-14T02:40:49.119Z,9.80
2023-02-14T02:43:53.749Z,9.81
2023-02-14T02:46:49.771Z,9.90
2023-02-14T02:49:59.776Z,9.81
2023-02-14T02:53:04.219Z,9.94
2023-02-14T02:55:51.664Z,10.36
2023-02-14T02:58:20.344Z,10.07
2023-02-14T03:00:50.311Z,9.84
2023-02-14T03:03:36.420Z,9.75
2023-02-14T03:06:03.359Z,10.03
2023-02-14T03:08:30.090Z,10.09
2023-02-14T03:10:57.622Z,10.10
2023-02-14T03:13:42.282Z,9.96
2023-02-14T03:16:11.869Z,9.94
2023-02-14T03:19:31.114Z,9.97
2023-02-14T03:22:11.671Z,9.90
2023-02-14T03:24:49.766Z,9.76
2023-02-14T03:27:32.755Z,9.82
2023-02-14T03:30:02.701Z,9.92
2023-02-14T03:32:48.078Z,9.74
2023-02-14T03:35:36.620Z,10.06
2023-02-14T03:38:15.558Z,9.75
2023-02-14T03:40:54.604Z,9.81
2023-02-14T03:43:28.369Z,9.89
2023-02-14T03:46:02.312Z,9.88
2023-02-14T03:48:31.119Z,9.92
2023-02-14T03:51:00.484Z,9.97
2023-02-14T03:53:31.682Z,9.79
2023-02-14T03:56:13.087Z,9.76
2023-02-14T03:58:46.909Z,9.72
2023-02-14T04:01:19.362Z,9.72
2023-02-14T04:03:47.370Z,9.90
2023-02-14T04:06:14.215Z,9.82
2023-02-14T04:08:40.941Z,9.62
2023-02-14T04:11:07.644Z,9.82
2023-02-14T04:13:36.829Z,9.75
2023-02-14T04:16:03.876Z,9.74
2023-02-14T04:18:49.337Z,9.97
2023-02-14T04:21:16.670Z,10.02
2023-02-14T04:23:43.330Z,9.78
2023-02-14T04:26:10.058Z,9.84
2023-02-14T04:28:36.747Z,9.93
2023-02-14T04:31:06.740Z,9.93
2023-02-14T04:33:34.306Z,9.83
2023-02-14T04:36:01.177Z,9.77
2023-02-14T04:38:27.799Z,9.73
2023-02-14T04:40:54.485Z,9.88
2023-02-14T04:43:21.205Z,9.85
2023-02-14T04:45:47.933Z,9.74
2023-02-14T04:48:14.806Z,9.97
2023-02-14T04:50:41.517Z,9.78
2023-02-14T04:53:10.893Z,9.91
2023-02-14T04:55:37.639Z,9.97
2023-02-14T04:58:04.298Z,10.03
2023-02-14T05:00:31.031Z,9.87
2023-02-14T05:02:57.698Z,9.86
2023-02-14T05:05:24.332Z,9.83
2023-02-14T05:07:51.045Z,9.90
2023-02-14T05:10:17.784Z,9.80
2023-02-14T05:12:44.685Z,9.70
2023-02-14T05:15:11.282Z,9.96
2023-02-14T05:17:37.964Z,9.80
2023-02-14T05:20:05.940Z,9.74
2023-02-14T05:22:32.610Z,10.15
2023-02-14T05:24:59.206Z,9.96
2023-02-14T05:27:25.936Z,9.90
2023-02-14T05:29:52.630Z,9.81
2023-02-14T05:32:19.295Z,9.78
2023-02-14T05:34:45.967Z,9.78
2023-02-14T05:37:12.610Z,9.84
2023-02-14T05:39:39.355Z,9.85
2023-02-14T05:42:06.011Z,9.90
2023-02-14T05:44:32.786Z,9.81
2023-02-14T05:46:59.438Z,9.69
2023-02-14T05:49:26.188Z,9.85
2023-02-14T05:51:52.983Z,9.94
2023-02-14T05:54:19.666Z,10.16
2023-02-14T05:56:46.371Z,10.10
2023-02-14T05:59:14.556Z,10.05
2023-02-14T06:01:41.240Z,10.13
2023-02-14T06:04:07.915Z,10.02
2023-02-14T06:06:36.578Z,9.96
2023-02-14T06:09:03.576Z,9.97
2023-02-14T06:11:30.303Z,9.92
2023-02-14T06:13:56.945Z,9.62
2023-02-14T06:16:23.749Z,9.88
2023-02-14T06:18:50.491Z,9.83
2023-02-14T06:21:17.188Z,9.88
2023-02-14T06:23:43.837Z,9.92
2023-02-14T06:26:10.523Z,9.98
2023-02-14T06:28:37.233Z,9.72
2023-02-14T06:31:04.399Z,9.93
2023-02-14T06:33:31.335Z,9.89
2023-02-14T06:35:58.040Z,10.01
2023-02-14T06:38:24.766Z,10.10
2023-02-14T06:40:51.441Z,10.02
2023-02-14T06:43:18.101Z,10.07
2023-02-14T06:45:46.673Z,9.91
2023-02-14T06:48:13.381Z,9.76
2023-02-14T06:50:40.115Z,9.85
2023-02-14T06:53:06.850Z,9.88
2023-02-14T06:55:33.509Z,9.96
2023-02-14T06:58:00.166Z,9.93
2023-02-14T07:00:26.989Z,10.10
2023-02-14T07:02:53.676Z,10.21
2023-02-14T07:05:20.398Z,9.84
2023-02-14T07:07:47.108Z,9.86
2023-02-14T07:10:14.648Z,10.10
2023-02-14T07:12:41.350Z,9.81
2023-02-14T07:15:09.651Z,10.16
2023-02-14T07:17:36.506Z,10.28
2023-02-14T07:20:03.913Z,10.11
2023-02-14T07:22:30.598Z,10.15
2023-02-14T07:24:57.291Z,10.21
2023-02-14T07:27:24.286Z,10.08
2023-02-14T07:29:51.012Z,10.06
2023-02-14T07:32:18.120Z,10.23
2023-02-14T07:34:45.008Z,10.03
2023-02-14T07:37:11.771Z,10.33
2023-02-14T07:39:38.393Z,10.30
2023-02-14T07:42:05.132Z,10.15
2023-02-14T07:44:32.572Z,10.11
2023-02-14T07:46:59.277Z,10.14
2023-02-14T07:49:26.037Z,10.17
2023-02-14T07:51:52.909Z,10.36
2023-02-14T07:54:20.340Z,10.35
2023-02-14T07:56:47.133Z,10.43
2023-02-14T07:59:13.930Z,10.28
2023-02-14T08:01:40.691Z,10.27
2023-02-14T08:04:07.417Z,10.24
2023-02-14T08:06:34.170Z,10.59
2023-02-14T08:09:00.944Z,10.50
2023-02-14T08:11:46.085Z,10.58
2023-02-14T08:14:12.740Z,10.70
2023-02-14T08:16:39.796Z,10.52
2023-02-14T08:19:06.661Z,10.56
2023-02-14T08:21:33.776Z,10.44
2023-02-14T08:24:00.834Z,10.24
2023-02-14T08:26:27.616Z,10.51
2023-02-14T08:28:54.507Z,10.77
2023-02-14T08:31:34.294Z,10.80
2023-02-14T08:34:02.152Z,10.72
2023-02-14T08:36:28.852Z,10.80
2023-02-14T08:38:56.104Z,10.72
2023-02-14T08:41:22.835Z,11.00
2023-02-14T08:43:50.149Z,10.96
2023-02-14T08:46:17.301Z,11.26
2023-02-14T08:48:44.359Z,11.58
2023-02-14T08:51:13.724Z,11.39
2023-02-14T08:53:41.880Z,11.20
2023-02-14T08:56:10.506Z,11.35
2023-02-14T08:58:38.750Z,11.77
2023-02-14T09:01:16.946Z,12.27
2023-02-14T09:03:44.444Z,12.45
2023-02-14T09:06:14.523Z,12.82
2023-02-14T09:08:41.250Z,13.35
2023-02-14T09:11:12.206Z,12.19
2023-02-14T09:13:38.993Z,12.21
2023-02-14T09:16:07.508Z,11.71
2023-02-14T09:18:34.463Z,12.93
2023-02-14T09:21:01.753Z,13.11
2023-02-14T09:23:28.714Z,12.92
2023-02-14T09:26:03.589Z,12.01
2023-02-14T09:28:31.145Z,12.31
2023-02-14T09:30:59.034Z,13.57
2023-02-14T09:33:29.227Z,14.55
2023-02-14T09:36:16.515Z,14.99
2023-02-14T09:38:43.223Z,14.01
2023-02-14T09:41:20.338Z,15.24
2023-02-14T09:44:01.599Z,12.63
2023-02-14T09:46:30.986Z,13.48
2023-02-14T09:48:59.631Z,13.65
2023-02-14T09:51:29.396Z,13.99
2023-02-14T09:54:05.758Z,15.53
2023-02-14T09:56:57.146Z,15.77
2023-02-14T09:59:39.634Z,16.13
2023-02-14T10:02:06.799Z,14.48
2023-02-14T10:05:02.899Z,14.98
2023-02-14T10:07:54.297Z,15.27
2023-02-14T10:10:23.622Z,16.09
2023-02-14T10:12:56.698Z,15.64
2023-02-14T10:15:40.588Z,15.82
2023-02-14T10:18:19.301Z,15.24
2023-02-14T10:20:53.130Z,14.99
2023-02-14T10:23:38.266Z,14.80
2023-02-14T10:26:12.771Z,15.91
2023-02-14T10:28:45.429Z,13.84
2023-02-14T10:31:41.796Z,14.98
2023-02-14T10:34:32.791Z,15.76
2023-02-14T10:37:37.978Z,15.51
2023-02-14T10:40:17.556Z,16.05
2023-02-14T10:42:59.481Z,15.09
2023-02-14T10:45:53.561Z,16.04
2023-02-14T10:48:37.500Z,16.66
2023-02-14T10:51:15.424Z,16.28
2023-02-14T10:53:51.276Z,15.39
2023-02-14T10:56:41.184Z,15.30
2023-02-14T10:59:25.820Z,16.07
2023-02-14T11:01:54.290Z,15.95
2023-02-14T11:04:23.874Z,15.84
2023-02-14T11:06:50.994Z,16.01
2023-02-14T11:09:18.327Z,16.61
2023-02-14T11:11:57.237Z,16.05
2023-02-14T11:14:28.696Z,15.84
2023-02-14T11:16:57.819Z,15.39
2023-02-14T11:19:37.491Z,15.84
2023-02-14T11:22:04.763Z,16.72
2023-02-14T11:24:33.027Z,17.14
2023-02-14T11:27:17.306Z,16.90
2023-02-14T11:29:48.190Z,15.95
2023-02-14T11:32:22.613Z,15.77
2023-02-14T11:34:52.594Z,16.49
2023-02-14T11:37:22.092Z,16.74
2023-02-14T11:39:57.893Z,15.80
2023-02-14T11:42:42.650Z,16.50
2023-02-14T11:45:32.783Z,16.09
2023-02-14T11:48:24.831Z,15.96
2023-02-14T11:51:04.590Z,16.28
2023-02-14T11:53:48.840Z,15.91
2023-02-14T11:56:17.677Z,16.02
2023-02-14T11:59:03.046Z,15.39
2023-02-14T12:01:35.546Z,15.48
2023-02-14T12:04:06.241Z,15.29
2023-02-14T12:06:35.616Z,15.82
2023-02-14T12:09:23.739Z,14.55
2023-02-14T12:12:00.947Z,15.18
2023-02-14T12:14:34.201Z,15.96
2023-02-14T12:17:25.221Z,16.34
2023-02-14T12:20:00.941Z,15.97
2023-02-14T12:22:41.251Z,15.47
2023-02-14T12:25:26.168Z,15.01
2023-02-14T12:28:01.472Z,15.87
2023-02-14T12:30:32.474Z,14.80
2023-02-14T12:33:00.031Z,16.15
2023-02-14T12:35:57.614Z,16.21
2023-02-14T12:38:52.429Z,15.25
2023-02-14T12:41:25.002Z,16.00
2023-02-14T12:43:55.849Z,14.25
2023-02-14T12:46:40.494Z,14.65
2023-02-14T12:49:28.373Z,15.40
2023-02-14T12:52:22.560Z,15.04
2023-02-14T12:55:16.945Z,15.44
2023-02-14T12:58:28.453Z,15.59
2023-02-14T13:01:10.046Z,15.52
2023-02-14T13:03:48.925Z,16.18
2023-02-14T13:06:22.112Z,15.77
2023-02-14T13:08:51.700Z,15.68
2023-02-14T13:11:34.507Z,15.49
2023-02-14T13:14:29.829Z,15.73
2023-02-14T13:17:07.486Z,16.06
2023-02-14T13:19:46.215Z,16.07
2023-02-14T13:22:20.722Z,15.63
2023-02-14T13:24:50.577Z,15.42
2023-02-14T13:27:23.857Z,15.65
2023-02-14T13:29:55.932Z,14.38
2023-02-14T13:32:27.404Z,14.18
2023-02-14T13:34:54.836Z,14.73
2023-02-14T13:37:24.707Z,15.64
2023-02-14T13:39:51.333Z,14.94
2023-02-14T13:42:46.831Z,14.48
2023-02-14T13:45:37.346Z,13.66
2023-02-14T13:48:06.830Z,14.75
2023-02-14T13:50:49.768Z,14.72
2023-02-14T13:53:31.668Z,15.36
2023-02-14T13:55:59.132Z,15.80
2023-02-14T13:58:26.289Z,14.44
2023-02-14T14:00:53.573Z,14.69
2023-02-14T14:03:26.235Z,15.44
2023-02-14T14:06:08.711Z,14.73
2023-02-14T14:08:38.404Z,15.07
2023-02-14T14:11:22.321Z,15.22
2023-02-14T14:13:57.315Z,15.44
2023-02-14T14:16:24.418Z,14.84
2023-02-14T14:19:18.105Z,14.38
2023-02-14T14:22:07.198Z,15.41
2023-02-14T14:24:36.128Z,14.78
2023-02-14T14:27:21.835Z,13.94
2023-02-14T14:29:55.972Z,14.78
2023-02-14T14:32:39.085Z,15.36
2023-02-14T14:35:13.627Z,15.82
2023-02-14T14:37:53.124Z,15.95
2023-02-14T14:40:32.690Z,16.11
2023-02-14T14:43:22.782Z,15.55
2023-02-14T14:45:53.413Z,15.31
2023-02-14T14:48:55.947Z,16.02
2023-02-14T14:51:34.528Z,15.91
2023-02-14T14:54:05.886Z,15.32
2023-02-14T14:56:37.097Z,15.54
2023-02-14T14:59:25.991Z,14.95
2023-02-14T15:01:54.436Z,14.98
2023-02-14T15:04:30.001Z,14.78
2023-02-14T15:06:58.645Z,15.26
2023-02-14T15:09:33.725Z,15.53
2023-02-14T15:12:20.815Z,15.38
2023-02-14T15:14:54.589Z,15.55
2023-02-14T15:17:28.470Z,15.40
2023-02-14T15:20:05.624Z,15.42
2023-02-14T15:22:44.828Z,15.26
2023-02-14T15:25:18.361Z,14.78
2023-02-14T15:27:45.573Z,14.87
2023-02-14T15:30:34.105Z,14.74
2023-02-14T15:33:06.080Z,14.78
2023-02-14T15:35:36.879Z,14.53
2023-02-14T15:38:06.606Z,15.09
2023-02-14T15:40:35.616Z,14.89
2023-02-14T15:43:25.043Z,14.51
2023-02-14T15:45:57.397Z,14.60
2023-02-14T15:48:34.606Z,14.52
2023-02-14T15:51:05.011Z,14.56
2023-02-14T15:53:44.554Z,14.63
2023-02-14T15:56:26.174Z,14.32
2023-02-14T15:58:59.985Z,14.26
2023-02-14T16:01:27.360Z,14.28
2023-02-14T16:03:58.031Z,14.24
2023-02-14T16:06:44.547Z,14.02
2023-02-14T16:09:28.965Z,13.84
2023-02-14T16:11:55.674Z,13.90
2023-02-14T16:14:35.306Z,13.92
2023-02-14T16:17:11.103Z,13.64
2023-02-14T16:19:39.077Z,13.35
2023-02-14T16:22:07.125Z,13.33
2023-02-14T16:24:34.546Z,13.19
2023-02-14T16:27:06.780Z,13.37
2023-02-14T16:29:35.589Z,13.46
2023-02-14T16:32:17.792Z,13.48
2023-02-14T16:34:47.199Z,13.12
2023-02-14T16:37:30.169Z,13.38
2023-02-14T16:39:57.857Z,13.37
2023-02-14T16:42:25.213Z,13.19
2023-02-14T16:44:51.948Z,13.42
2023-02-14T16:47:20.332Z,13.28
2023-02-14T16:49:47.419Z,12.80
2023-02-14T16:52:17.758Z,13.41
2023-02-14T16:54:44.626Z,13.03
2023-02-14T16:57:40.976Z,13.03
2023-02-14T17:00:09.559Z,13.00
2023-02-14T17:02:36.966Z,12.98
2023-02-14T17:05:04.999Z,13.30
2023-02-14T17:07:32.868Z,13.20
2023-02-14T17:10:05.849Z,12.49
2023-02-14T17:12:36.413Z,12.47
2023-02-14T17:15:08.399Z,12.84
2023-02-14T17:17:37.136Z,12.80
2023-02-14T17:20:06.245Z,12.37
2023-02-14T17:22:34.448Z,12.18
2023-02-14T17:25:01.237Z,11.98
2023-02-14T17:27:27.901Z,11.99
2023-02-14T17:29:54.647Z,11.79
2023-02-14T17:32:21.385Z,11.91
2023-02-14T17:34:49.314Z,11.91
2023-02-14T17:37:18.772Z,12.05
2023-02-14T17:39:45.724Z,12.01
2023-02-14T17:42:12.384Z,12.22
2023-02-14T17:44:39.283Z,12.47
2023-02-14T17:47:06.463Z,12.59
2023-02-14T17:49:33.349Z,13.13
2023-02-14T17:52:00.081Z,12.62
2023-02-14T17:54:26.738Z,12.38
2023-02-14T17:56:53.496Z,12.44
2023-02-14T17:59:20.411Z,12.60
2023-02-14T18:01:47.159Z,12.80
2023-02-14T18:04:13.887Z,12.87
2023-02-14T18:06:40.702Z,12.72
2023-02-14T18:09:07.469Z,12.56
2023-02-14T18:11:34.215Z,13.05
2023-02-14T18:14:01.776Z,12.25
2023-02-14T18:16:28.600Z,12.74
2023-02-14T18:18:55.310Z,12.74
2023-02-14T18:21:24.174Z,13.18
2023-02-14T18:23:50.960Z,12.83
2023-02-14T18:26:18.532Z,13.00
2023-02-14T18:28:45.666Z,12.95
2023-02-14T18:31:14.734Z,12.64
2023-02-14T18:33:42.360Z,12.59
2023-02-14T18:36:14.471Z,12.89
2023-02-14T18:38:43.281Z,12.54
2023-02-14T18:41:13.212Z,12.37
2023-02-14T18:43:44.465Z,12.59
2023-02-14T18:46:13.698Z,12.85
2023-02-14T18:48:40.729Z,12.68
2023-02-14T18:51:09.445Z,12.79
2023-02-14T18:53:37.460Z,12.73
2023-02-14T18:56:06.631Z,12.61
2023-02-14T18:58:34.226Z,12.62
2023-02-14T19:01:09.289Z,12.34
2023-02-14T19:03:36.334Z,12.18
2023-02-14T19:06:03.332Z,12.25
2023-02-14T19:08:32.309Z,11.98
2023-02-14T19:10:59.578Z,11.96
2023-02-14T19:13:29.220Z,12.28
2023-02-14T19:15:56.463Z,11.92
2023-02-14T19:18:25.400Z,11.86
2023-02-14T19:20:52.986Z,11.88
2023-02-14T19:23:19.856Z,11.73
2023-02-14T19:25:46.513Z,11.74
2023-02-14T19:28:13.552Z,11.94
2023-02-14T19:30:40.384Z,11.61
2023-02-14T19:33:07.169Z,11.96
2023-02-14T19:35:33.951Z,11.65
2023-02-14T19:38:03.439Z,11.83
2023-02-14T19:40:30.911Z,11.66
2023-02-14T19:42:57.822Z,11.78
2023-02-14T19:45:24.651Z,11.61
2023-02-14T19:47:51.825Z,11.55
2023-02-14T19:50:19.424Z,11.79
2023-02-14T19:52:47.064Z,11.64
2023-02-14T19:55:21.914Z,11.96
2023-02-14T19:57:48.576Z,11.72
2023-02-14T20:00:16.317Z,11.64
2023-02-14T20:02:48.038Z,11.69
2023-02-14T20:05:16.583Z,11.97
2023-02-14T20:07:43.737Z,11.99
2023-02-14T20:10:11.876Z,11.95
2023-02-14T20:12:39.029Z,11.82
2023-02-14T20:15:06.229Z,11.87
2023-02-14T20:17:33.409Z,11.60
2023-02-14T20:20:00.217Z,11.59
2023-02-14T20:22:26.996Z,11.49
2023-02-14T20:24:53.698Z,11.52
2023-02-14T20:27:20.576Z,11.63
2023-02-14T20:29:47.319Z,11.36
2023-02-14T20:32:15.932Z,11.26
2023-02-14T20:34:42.998Z,11.17
2023-02-14T20:37:11.148Z,11.29
2023-02-14T20:39:38.595Z,11.83
2023-02-14T20:42:06.051Z,11.38
2023-02-14T20:44:33.795Z,11.28
2023-02-14T20:47:00.612Z,11.25
2023-02-14T20:49:28.480Z,11.06
2023-02-14T20:51:56.081Z,11.09
2023-02-14T20:54:24.945Z,10.87
2023-02-14T20:56:52.860Z,11.07
2023-02-14T20:59:24.340Z,11.01
2023-02-14T21:01:51.509Z,10.92
2023-02-14T21:04:18.148Z,10.53
2023-02-14T21:06:44.849Z,10.57
2023-02-14T21:09:11.525Z,10.60
2023-02-14T21:11:39.556Z,10.97
2023-02-14T21:14:06.360Z,10.49
2023-02-14T21:16:33.205Z,10.63
2023-02-14T21:19:00.203Z,10.51
2023-02-14T21:21:36.064Z,10.32
2023-02-14T21:24:14.670Z,10.76
2023-02-14T21:26:42.607Z,10.75
2023-02-14T21:29:09.792Z,10.68
2023-02-14T21:31:37.247Z,10.64
2023-02-14T21:34:04.870Z,10.67
2023-02-14T21:36:35.922Z,10.68
2023-02-14T21:39:03.770Z,10.29
2023-02-14T21:41:31.202Z,10.64
2023-02-14T21:43:59.620Z,10.39
2023-02-14T21:46:38.871Z,10.44
2023-02-14T21:49:25.385Z,10.29
2023-02-14T21:51:52.128Z,10.27
2023-02-14T21:54:19.003Z,10.40
2023-02-14T21:56:46.040Z,10.31
2023-02-14T21:59:12.829Z,10.17
2023-02-14T22:01:41.828Z,10.26
2023-02-14T22:04:10.935Z,9.98
2023-02-14T22:06:39.201Z,10.19
2023-02-14T22:09:07.014Z,9.96
2023-02-14T22:11:34.696Z,10.20
2023-02-14T22:14:02.022Z,10.07
2023-02-14T22:16:28.788Z,9.83
2023-02-14T22:18:55.630Z,10.21
2023-02-14T22:21:24.478Z,9.99
2023-02-14T22:23:51.417Z,10.12
2023-02-14T22:26:23.717Z,10.22
2023-02-14T22:28:53.823Z,10.11
2023-02-14T22:31:20.816Z,10.32
2023-02-14T22:33:48.832Z,10.22
2023-02-14T22:36:16.032Z,10.36
2023-02-14T22:38:42.997Z,10.25
2023-02-14T22:41:13.960Z,10.20
2023-02-14T22:43:41.872Z,10.17
2023-02-14T22:46:20.235Z,10.40
2023-02-14T22:48:48.585Z,9.87
2023-02-14T22:51:35.897Z,10.20
2023-02-14T22:54:06.123Z,10.15
2023-02-14T22:56:35.613Z,10.04
2023-02-14T22:59:05.463Z,9.79
2023-02-14T23:01:34.790Z,9.85
2023-02-14T23:04:03.290Z,10.12
2023-02-14T23:06:32.447Z,9.96
2023-02-14T23:08:59.335Z,10.19
2023-02-14T23:11:29.069Z,9.97
2023-02-14T23:14:14.762Z,10.10
2023-02-14T23:17:01.220Z,9.55
2023-02-14T23:19:49.046Z,9.82
2023-02-14T23:22:23.711Z,9.63
2023-02-14T23:24:52.236Z,9.75
2023-02-14T23:27:22.012Z,10.00
2023-02-14T23:29:48.930Z,9.80
2023-02-14T23:32:16.505Z,9.63
2023-02-14T23:34:45.005Z,9.79
2023-02-14T23:37:13.642Z,9.59
2023-02-14T23:39:40.857Z,10.25
2023-02-14T23:42:11.015Z,10.00
2023-02-14T23:44:37.979Z,9.87
2023-02-14T23:47:06.499Z,9.78
2023-02-14T23:49:34.907Z,9.70
2023-02-14T23:52:02.108Z,9.90
2023-02-14T23:54:29.021Z,9.69
2023-02-14T23:56:57.632Z,9.60
2023-02-14T23:59:24.528Z,9.96
